ADDS METAR Data INFO
IDs: Format: Raw Decoded Include TAF

Data at: 1516 UTC 23 Oct 2017

KHJH 231455Z AUTO 33018G24KT 10SM BKN100 OVC120 16/04 A3007 RMK AO2 T01600039
KHJH 231435Z AUTO 32010G16KT 10SM OVC110 16/05 A3007 RMK AO2 T01550045
KHJH 231415Z AUTO 32009G15KT 10SM BKN110 15/05 A3005 RMK AO2 T01520046
KHJH 231355Z AUTO 33009G16KT 10SM CLR 15/04 A3005 RMK AO2 T01500043
KHJH 231335Z AUTO 33009G16KT 10SM CLR 15/04 A3003 RMK AO2 T01490042
KHJH 231315Z AUTO 32009KT 10SM CLR 15/04 A3003 RMK AO2 T01460042
KHJH 231255Z AUTO 33010G14KT 10SM CLR 14/04 A3000 RMK AO2 T01430040
KHJH 231235Z AUTO 33016G20KT 10SM CLR 15/04 A2999 RMK AO2 T01450037
KHJH 231215Z AUTO 33012G18KT 10SM CLR 14/04 A2998 RMK AO2 T01370038
KHJH 231155Z AUTO 34010G16KT 10SM CLR 14/04 A2996 RMK AO2 T01380036 10138 20070
KHJH 231135Z AUTO 33010G15KT 10SM CLR 12/03 A2996 RMK AO2 T01190030
KHJH 231115Z AUTO 32007KT 10SM CLR 10/02 A2995 RMK AO2 T01000015
KHJH 231055Z AUTO 29006KT 10SM CLR 08/01 A2994 RMK AO2 T00830005
KHJH 231035Z AUTO 27004KT 10SM CLR 07/01 A2992 RMK AO2 T00710006
KHJH 231015Z AUTO 29003KT 10SM CLR 07/01 A2992 RMK AO2 T00710005
KHJH 230955Z AUTO 28004KT 10SM CLR 08/00 A2990 RMK AO2 T00840002
KHJH 230935Z AUTO 00000KT 10SM CLR 09/00 A2990 RMK AO2 T00890000
KHJH 230915Z AUTO 22004KT 10SM CLR 10/00 A2990 RMK AO2 T00961002
KHJH 230855Z AUTO 24005KT 10SM CLR 11/M01 A2990 RMK AO2 T01061006
KHJH 230835Z AUTO 23007KT 10SM CLR 11/M01 A2990 RMK AO2 T01141011
KHJH 230815Z AUTO 23007KT 10SM CLR 12/M01 A2991 RMK AO2 T01171013
KHJH 230755Z AUTO 24005KT 10SM CLR 11/M01 A2993 RMK AO2 T01111010
KHJH 230735Z AUTO 22004KT 10SM CLR 11/M01 A2993 RMK AO2 T01081008
KHJH 230715Z AUTO 22005KT 10SM CLR 11/M01 A2993 RMK AO2 T01081006
KHJH 230655Z AUTO 22003KT 10SM CLR 11/M01 A2995 RMK AO2 T01101006
KHJH 230635Z AUTO 22007KT 10SM CLR 12/M01 A2994 RMK AO2 T01181010
KHJH 230615Z AUTO 21008KT 10SM CLR 12/M01 A2995 RMK AO2 T01201008
KHJH 230555Z AUTO 20010KT 10SM CLR 12/M01 A2995 RMK AO2 T01221009 10148 20118 402140018
KHJH 230535Z AUTO 21010KT 10SM CLR 12/M01 A2996 RMK AO2 T01221010
KHJH 230515Z AUTO 20007KT 10SM CLR 12/M01 A2996 RMK AO2 T01201006
KHJH 230455Z AUTO 20006KT 10SM CLR 12/M01 A2997 RMK AO2 T01231007
KHJH 230435Z AUTO 19008KT 10SM CLR 13/M01 A2997 RMK AO2 T01251010
KHJH 230415Z AUTO 20007KT 10SM CLR 13/M01 A2999 RMK AO2 T01281010
KHJH 230355Z AUTO 19006KT 10SM CLR 13/M01 A3000 RMK AO2 T01251010
KHJH 230335Z AUTO 19007KT 10SM CLR 12/M01 A3000 RMK AO2 T01221006
KHJH 230315Z AUTO 19007KT 10SM CLR 13/M01 A3000 RMK AO2 T01261008
KHJH 230255Z AUTO 19009KT 10SM CLR 13/M01 A3000 RMK AO2 T01271010
KHJH 230235Z AUTO 19009KT 10SM CLR 13/M01 A3001 RMK AO2 T01251008
KHJH 230215Z AUTO 19008KT 10SM CLR 13/M01 A3002 RMK AO2 T01261007
KHJH 230155Z AUTO 19007KT 10SM CLR 13/M01 A3002 RMK AO2 T01261006
KHJH 230135Z AUTO 19007KT 10SM CLR 13/00 A3003 RMK AO2 T01251004
KHJH 230115Z AUTO 18007KT 10SM CLR 13/M01 A3002 RMK AO2 T01311006
KHJH 230055Z AUTO 19007KT 10SM CLR 12/00 A3003 RMK AO2 T01230000
KHJH 230035Z AUTO 19006KT 10SM CLR 13/00 A3003 RMK AO2 T01331005
KHJH 230015Z AUTO 19007KT 10SM CLR 14/00 A3002 RMK AO2 T01381001
KHJH 222355Z AUTO 20006KT 10SM CLR 15/M01 A3003 RMK AO2 T01491007 10214 20149
KHJH 222335Z AUTO 20005KT 10SM CLR 16/M01 A3003 RMK AO2 T01641011
KHJH 222315Z AUTO 21005KT 10SM CLR 19/M02 A3003 RMK AO2 T01881022
KHJH 222255Z AUTO 23004KT 10SM CLR 20/M03 A3003 RMK AO2 T01961029
KHJH 222235Z AUTO 27006KT 10SM CLR 21/M03 A3003 RMK AO2 T02051035
KHJH 222215Z AUTO 25008KT 10SM CLR 21/M04 A3004 RMK AO2 T02071040
KHJH 222155Z AUTO 26008KT 10SM CLR 21/M04 A3004 RMK AO2 T02101037
KHJH 222135Z AUTO 26010KT 10SM CLR 21/M03 A3004 RMK AO2 T02121034
KHJH 222115Z AUTO 28009G14KT 10SM CLR 21/M04 A3005 RMK AO2 T02101036
KHJH 222055Z AUTO 27012G17KT 10SM CLR 21/M04 A3005 RMK AO2 T02131038
KHJH 222035Z AUTO 26008G18KT 10SM CLR 21/M04 A3006 RMK AO2 T02141042
KHJH 222015Z AUTO 26012G16KT 10SM CLR 21/M03 A3007 RMK AO2 T02141028
KHJH 221955Z AUTO 29011G15KT 10SM CLR 21/M05 A3006 RMK AO2 T02101048
KHJH 221935Z AUTO 25013G17KT 10SM CLR 21/M06 A3006 RMK AO2 T02111065
KHJH 221915Z AUTO 21007G14KT 10SM CLR 21/M06 A3008 RMK AO2 T02111065
KHJH 221855Z AUTO 24012G17KT 10SM CLR 21/M05 A3009 RMK AO2 T02071050
KHJH 221835Z AUTO 26010KT 10SM CLR 20/M04 A3010 RMK AO2 T02041037
KHJH 221815Z AUTO 25008KT 10SM CLR 20/M03 A3012 RMK AO2 T01981032
KHJH 221755Z AUTO 21010KT 10SM CLR 20/M02 A3012 RMK AO2 T01951023 10195 20018
KHJH 221735Z AUTO 23009KT 10SM CLR 19/M02 A3014 RMK AO2 T01921016
KHJH 221715Z AUTO 22006KT 10SM CLR 19/00 A3015 RMK AO2 T01870003
KHJH 221655Z AUTO 23007KT 10SM CLR 18/00 A3015 RMK AO2 T01821005
KHJH 221635Z AUTO 24006KT 10SM CLR 18/00 A3015 RMK AO2 T01790002
KHJH 221615Z AUTO 24005KT 10SM CLR 17/01 A3015 RMK AO2 T01680014
KHJH 221555Z AUTO 26005KT 10SM CLR 15/03 A3015 RMK AO2 T01530033
KHJH 221535Z AUTO 25004KT 10SM CLR 14/05 A3016 RMK AO2 T01370047
KHJH 221515Z AUTO 28003KT 10SM CLR 12/05 A3016 RMK AO2 T01180046
KHJH 221455Z AUTO 00000KT 10SM CLR 09/04 A3016 RMK AO2 T00930044
KHJH 221435Z AUTO 00000KT 10SM CLR 07/03 A3015 RMK AO2 T00710031
KHJH 221415Z AUTO 00000KT 10SM CLR 06/03 A3015 RMK AO2 T00560025
KHJH 221355Z AUTO 00000KT 10SM CLR 05/03 A3015 RMK AO2 T00460025
KHJH 221335Z AUTO 00000KT 10SM CLR 03/02 A3014 RMK AO2 T00300020
KHJH 221315Z AUTO 00000KT 10SM CLR 02/01 A3013 RMK AO2 T00200012
KHJH 221255Z AUTO 00000KT 10SM CLR 02/01 A3013 RMK AO2 T00200010
KHJH 221235Z AUTO 00000KT 10SM CLR 02/01 A3013 RMK AO2 T00210011
KHJH 221215Z AUTO 00000KT 10SM CLR 03/02 A3013 RMK AO2 T00250015
KHJH 221155Z AUTO 00000KT 10SM CLR 03/02 A3014 RMK AO2 T00250015 10079 20025
KHJH 221135Z AUTO 00000KT 10SM CLR 03/02 A3014 RMK AO2 T00310019
KHJH 221115Z AUTO 00000KT 10SM CLR 04/02 A3014 RMK AO2 T00350020
KHJH 221055Z AUTO 27003KT 10SM CLR 04/02 A3013 RMK AO2 T00350020
KHJH 221035Z AUTO 28003KT 10SM CLR 04/02 A3011 RMK AO2 T00360021
KHJH 221015Z AUTO 00000KT 10SM CLR 04/02 A3010 RMK AO2 T00370022
KHJH 220955Z AUTO 27003KT 10SM CLR 04/03 A3010 RMK AO2 T00440026
KHJH 220935Z AUTO 27004KT 10SM CLR 05/03 A3009 RMK AO2 T00470028
KHJH 220915Z AUTO 00000KT 10SM CLR 05/03 A3008 RMK AO2 T00490030
KHJH 220855Z AUTO 26003KT 10SM CLR 06/03 A3008 RMK AO2 T00550034
KHJH 220835Z AUTO 28004KT 10SM CLR 06/04 A3005 RMK AO2 T00550036
KHJH 220815Z AUTO 28003KT 10SM CLR 06/04 A3005 RMK AO2 T00620040
KHJH 220755Z AUTO 00000KT 10SM CLR 07/04 A3005 RMK AO2 T00650042
KHJH 220735Z AUTO 00000KT 10SM CLR 07/04 A3003 RMK AO2 T00660042
KHJH 220715Z AUTO 00000KT 10SM CLR 07/05 A3002 RMK AO2 LTG DSNT SE T00660045
KHJH 220655Z AUTO 00000KT 10SM CLR 08/05 A3003 RMK AO2 T00750048
KHJH 220635Z AUTO 00000KT 10SM CLR 08/05 A3002 RMK AO2 T00750049
KHJH 220615Z AUTO 28003KT 10SM CLR 08/05 A3003 RMK AO2 T00760050
KHJH 220550Z AUTO 29003KT 10SM CLR 08/05 A3003 RMK AO2 LTG DSNT E T00800050 10136 20076 402300076
KHJH 220535Z AUTO 28003KT 10SM CLR 08/05 A3004 RMK AO2 T00820049
KHJH 220515Z AUTO 26003KT 10SM CLR 09/05 A3005 RMK AO2 T00850051
KHJH 220455Z AUTO 25003KT 10SM CLR 08/06 A3003 RMK AO2 T00840055
KHJH 220435Z AUTO 00000KT 10SM CLR 08/05 A3003 RMK AO2 T00840051
KHJH 220415Z AUTO 00000KT 10SM CLR 08/05 A3002 RMK AO2 T00780051
KHJH 220355Z AUTO 00000KT 10SM CLR 09/05 A3003 RMK AO2 T00890048
KHJH 220335Z AUTO 00000KT 10SM CLR 10/05 A3002 RMK AO2 LTG DSNT S T00950051